sensor_id;sensor_type;location;lat;lon;timestamp;P1;durP1;ratioP1;P2;durP2;ratioP2
39890;SDS011;25564;53.312;9.790;2023-08-30T00:00:46;2.47;;;1.80;;
39890;SDS011;25564;53.312;9.790;2023-08-30T00:03:17;2.40;;;1.23;;
39890;SDS011;25564;53.312;9.790;2023-08-30T00:05:49;2.10;;;1.27;;
39890;SDS011;25564;53.312;9.790;2023-08-30T00:08:20;3.13;;;1.50;;
39890;SDS011;25564;53.312;9.790;2023-08-30T00:10:52;3.23;;;1.30;;
39890;SDS011;25564;53.312;9.790;2023-08-30T00:13:25;2.07;;;1.40;;
39890;SDS011;25564;53.312;9.790;2023-08-30T00:15:57;2.43;;;1.50;;
39890;SDS011;25564;53.312;9.790;2023-08-30T00:18:28;3.37;;;1.47;;
39890;SDS011;25564;53.312;9.790;2023-08-30T00:21:00;2.23;;;1.50;;
39890;SDS011;25564;53.312;9.790;2023-08-30T00:23:31;2.73;;;1.57;;
39890;SDS011;25564;53.312;9.790;2023-08-30T00:26:03;1.70;;;1.20;;
39890;SDS011;25564;53.312;9.790;2023-08-30T00:28:34;7.17;;;1.43;;
39890;SDS011;25564;53.312;9.790;2023-08-30T00:31:05;2.97;;;1.40;;
39890;SDS011;25564;53.312;9.790;2023-08-30T00:33:37;2.50;;;1.50;;
39890;SDS011;25564;53.312;9.790;2023-08-30T00:36:09;2.53;;;1.33;;
39890;SDS011;25564;53.312;9.790;2023-08-30T00:38:40;2.33;;;1.30;;
39890;SDS011;25564;53.312;9.790;2023-08-30T00:41:12;5.17;;;1.43;;
39890;SDS011;25564;53.312;9.790;2023-08-30T00:43:43;2.87;;;1.60;;
39890;SDS011;25564;53.312;9.790;2023-08-30T00:46:15;2.57;;;1.47;;
39890;SDS011;25564;53.312;9.790;2023-08-30T00:48:48;3.27;;;1.67;;
39890;SDS011;25564;53.312;9.790;2023-08-30T00:51:19;2.80;;;1.50;;
39890;SDS011;25564;53.312;9.790;2023-08-30T00:53:52;4.57;;;1.30;;
39890;SDS011;25564;53.312;9.790;2023-08-30T00:56:28;3.43;;;1.43;;
39890;SDS011;25564;53.312;9.790;2023-08-30T00:59:00;1.60;;;1.10;;
39890;SDS011;25564;53.312;9.790;2023-08-30T01:01:32;2.37;;;1.37;;
39890;SDS011;25564;53.312;9.790;2023-08-30T01:04:03;3.33;;;1.50;;
39890;SDS011;25564;53.312;9.790;2023-08-30T01:06:35;3.27;;;1.47;;
39890;SDS011;25564;53.312;9.790;2023-08-30T01:09:07;3.73;;;1.77;;
39890;SDS011;25564;53.312;9.790;2023-08-30T01:11:46;1.90;;;1.27;;
39890;SDS011;25564;53.312;9.790;2023-08-30T01:14:40;3.40;;;1.47;;
39890;SDS011;25564;53.312;9.790;2023-08-30T01:17:21;4.10;;;1.50;;
39890;SDS011;25564;53.312;9.790;2023-08-30T01:20:01;4.33;;;1.80;;
39890;SDS011;25564;53.312;9.790;2023-08-30T01:28:37;2.50;;;1.50;;
39890;SDS011;25564;53.312;9.790;2023-08-30T01:31:10;5.27;;;1.60;;
39890;SDS011;25564;53.312;9.790;2023-08-30T01:33:44;4.90;;;1.43;;
39890;SDS011;25564;53.312;9.790;2023-08-30T01:36:17;5.47;;;1.93;;
39890;SDS011;25564;53.312;9.790;2023-08-30T01:38:48;3.13;;;1.80;;
39890;SDS011;25564;53.312;9.790;2023-08-30T01:41:21;2.47;;;1.73;;
39890;SDS011;25564;53.312;9.790;2023-08-30T01:43:54;4.17;;;2.10;;
39890;SDS011;25564;53.312;9.790;2023-08-30T01:46:28;3.87;;;2.13;;
39890;SDS011;25564;53.312;9.790;2023-08-30T01:49:01;3.50;;;2.20;;
39890;SDS011;25564;53.312;9.790;2023-08-30T01:51:34;3.93;;;1.93;;
39890;SDS011;25564;53.312;9.790;2023-08-30T01:54:05;4.47;;;2.70;;
39890;SDS011;25564;53.312;9.790;2023-08-30T01:56:40;3.77;;;1.93;;
39890;SDS011;25564;53.312;9.790;2023-08-30T01:59:12;5.13;;;2.13;;
39890;SDS011;25564;53.312;9.790;2023-08-30T02:01:44;2.77;;;1.67;;
39890;SDS011;25564;53.312;9.790;2023-08-30T02:04:15;3.07;;;1.90;;
39890;SDS011;25564;53.312;9.790;2023-08-30T02:06:50;6.40;;;1.90;;
39890;SDS011;25564;53.312;9.790;2023-08-30T02:09:30;4.67;;;2.73;;
39890;SDS011;25564;53.312;9.790;2023-08-30T02:12:12;5.77;;;2.60;;
39890;SDS011;25564;53.312;9.790;2023-08-30T02:14:46;7.43;;;3.23;;
39890;SDS011;25564;53.312;9.790;2023-08-30T02:17:19;3.80;;;1.97;;
39890;SDS011;25564;53.312;9.790;2023-08-30T02:19:51;3.20;;;1.77;;
39890;SDS011;25564;53.312;9.790;2023-08-30T02:22:24;4.13;;;1.83;;
39890;SDS011;25564;53.312;9.790;2023-08-30T02:24:56;3.97;;;2.50;;
39890;SDS011;25564;53.312;9.790;2023-08-30T02:27:28;3.00;;;2.20;;
39890;SDS011;25564;53.312;9.790;2023-08-30T02:30:01;3.70;;;2.20;;
39890;SDS011;25564;53.312;9.790;2023-08-30T02:32:34;5.00;;;2.87;;
39890;SDS011;25564;53.312;9.790;2023-08-30T02:35:06;4.03;;;2.67;;
39890;SDS011;25564;53.312;9.790;2023-08-30T02:37:37;5.57;;;2.23;;
39890;SDS011;25564;53.312;9.790;2023-08-30T02:40:11;5.20;;;1.83;;
39890;SDS011;25564;53.312;9.790;2023-08-30T02:42:43;3.67;;;2.20;;
39890;SDS011;25564;53.312;9.790;2023-08-30T02:45:14;5.47;;;1.83;;
39890;SDS011;25564;53.312;9.790;2023-08-30T02:47:45;7.00;;;3.27;;
39890;SDS011;25564;53.312;9.790;2023-08-30T02:50:17;5.97;;;3.00;;
39890;SDS011;25564;53.312;9.790;2023-08-30T02:52:49;8.43;;;3.83;;
39890;SDS011;25564;53.312;9.790;2023-08-30T02:55:20;8.40;;;3.77;;
39890;SDS011;25564;53.312;9.790;2023-08-30T02:57:52;6.90;;;3.00;;
39890;SDS011;25564;53.312;9.790;2023-08-30T03:00:24;5.20;;;2.80;;
39890;SDS011;25564;53.312;9.790;2023-08-30T03:02:56;4.93;;;2.30;;
39890;SDS011;25564;53.312;9.790;2023-08-30T03:05:27;4.73;;;2.80;;
39890;SDS011;25564;53.312;9.790;2023-08-30T03:07:59;6.13;;;3.00;;
39890;SDS011;25564;53.312;9.790;2023-08-30T03:10:31;7.07;;;2.50;;
39890;SDS011;25564;53.312;9.790;2023-08-30T03:13:03;5.03;;;2.83;;
39890;SDS011;25564;53.312;9.790;2023-08-30T03:15:35;4.07;;;2.53;;
39890;SDS011;25564;53.312;9.790;2023-08-30T03:18:07;4.30;;;2.83;;
39890;SDS011;25564;53.312;9.790;2023-08-30T03:20:39;3.70;;;2.23;;
39890;SDS011;25564;53.312;9.790;2023-08-30T03:23:10;3.60;;;2.60;;
39890;SDS011;25564;53.312;9.790;2023-08-30T03:25:42;3.53;;;2.30;;
39890;SDS011;25564;53.312;9.790;2023-08-30T03:28:13;4.03;;;2.47;;
39890;SDS011;25564;53.312;9.790;2023-08-30T03:30:45;8.00;;;2.83;;
39890;SDS011;25564;53.312;9.790;2023-08-30T03:33:17;6.37;;;2.40;;
39890;SDS011;25564;53.312;9.790;2023-08-30T03:35:48;4.60;;;2.90;;
39890;SDS011;25564;53.312;9.790;2023-08-30T03:38:20;3.87;;;2.37;;
39890;SDS011;25564;53.312;9.790;2023-08-30T03:40:53;4.60;;;2.80;;
39890;SDS011;25564;53.312;9.790;2023-08-30T03:43:25;5.43;;;2.80;;
39890;SDS011;25564;53.312;9.790;2023-08-30T03:45:58;5.27;;;2.33;;
39890;SDS011;25564;53.312;9.790;2023-08-30T03:48:30;4.17;;;2.67;;
39890;SDS011;25564;53.312;9.790;2023-08-30T03:51:03;3.77;;;2.50;;
39890;SDS011;25564;53.312;9.790;2023-08-30T03:53:34;5.50;;;2.60;;
39890;SDS011;25564;53.312;9.790;2023-08-30T03:56:05;4.10;;;2.43;;
39890;SDS011;25564;53.312;9.790;2023-08-30T03:58:37;4.57;;;2.70;;
39890;SDS011;25564;53.312;9.790;2023-08-30T04:01:09;6.43;;;2.97;;
39890;SDS011;25564;53.312;9.790;2023-08-30T04:03:40;2.93;;;2.33;;
39890;SDS011;25564;53.312;9.790;2023-08-30T04:06:12;5.13;;;2.53;;
39890;SDS011;25564;53.312;9.790;2023-08-30T04:08:43;3.23;;;2.37;;
39890;SDS011;25564;53.312;9.790;2023-08-30T04:11:15;4.40;;;2.40;;
39890;SDS011;25564;53.312;9.790;2023-08-30T04:13:46;4.23;;;2.87;;
39890;SDS011;25564;53.312;9.790;2023-08-30T04:16:18;7.13;;;3.00;;
39890;SDS011;25564;53.312;9.790;2023-08-30T04:18:49;6.03;;;2.97;;
39890;SDS011;25564;53.312;9.790;2023-08-30T04:21:21;4.83;;;2.63;;
39890;SDS011;25564;53.312;9.790;2023-08-30T04:23:52;4.50;;;2.50;;
39890;SDS011;25564;53.312;9.790;2023-08-30T04:26:24;5.20;;;3.07;;
39890;SDS011;25564;53.312;9.790;2023-08-30T04:28:55;6.40;;;2.93;;
39890;SDS011;25564;53.312;9.790;2023-08-30T04:31:27;4.87;;;2.97;;
39890;SDS011;25564;53.312;9.790;2023-08-30T04:33:58;6.13;;;3.30;;
39890;SDS011;25564;53.312;9.790;2023-08-30T04:36:29;6.93;;;3.87;;
39890;SDS011;25564;53.312;9.790;2023-08-30T04:39:01;5.73;;;3.13;;
39890;SDS011;25564;53.312;9.790;2023-08-30T04:41:33;5.50;;;3.20;;
39890;SDS011;25564;53.312;9.790;2023-08-30T04:44:05;5.97;;;3.80;;
39890;SDS011;25564;53.312;9.790;2023-08-30T04:46:36;8.73;;;3.40;;
39890;SDS011;25564;53.312;9.790;2023-08-30T04:49:08;8.37;;;4.20;;
39890;SDS011;25564;53.312;9.790;2023-08-30T04:51:39;6.10;;;3.57;;
39890;SDS011;25564;53.312;9.790;2023-08-30T04:54:10;6.67;;;3.90;;
39890;SDS011;25564;53.312;9.790;2023-08-30T04:56:42;7.40;;;3.93;;
39890;SDS011;25564;53.312;9.790;2023-08-30T04:59:13;5.77;;;3.83;;
39890;SDS011;25564;53.312;9.790;2023-08-30T05:01:45;9.27;;;4.27;;
39890;SDS011;25564;53.312;9.790;2023-08-30T05:04:16;8.67;;;4.40;;
39890;SDS011;25564;53.312;9.790;2023-08-30T05:06:48;7.70;;;4.00;;
39890;SDS011;25564;53.312;9.790;2023-08-30T05:09:20;7.90;;;4.23;;
39890;SDS011;25564;53.312;9.790;2023-08-30T05:11:53;8.00;;;4.73;;
39890;SDS011;25564;53.312;9.790;2023-08-30T05:14:25;8.90;;;4.70;;
39890;SDS011;25564;53.312;9.790;2023-08-30T05:16:57;8.67;;;4.73;;
39890;SDS011;25564;53.312;9.790;2023-08-30T05:19:28;10.07;;;5.10;;
39890;SDS011;25564;53.312;9.790;2023-08-30T05:22:00;10.03;;;4.70;;
39890;SDS011;25564;53.312;9.790;2023-08-30T05:24:31;7.70;;;4.77;;
39890;SDS011;25564;53.312;9.790;2023-08-30T05:27:03;8.23;;;4.43;;
39890;SDS011;25564;53.312;9.790;2023-08-30T05:29:34;7.43;;;4.30;;
39890;SDS011;25564;53.312;9.790;2023-08-30T05:32:06;9.47;;;5.37;;
39890;SDS011;25564;53.312;9.790;2023-08-30T05:34:37;7.63;;;4.73;;
39890;SDS011;25564;53.312;9.790;2023-08-30T05:37:08;6.70;;;4.67;;
39890;SDS011;25564;53.312;9.790;2023-08-30T05:39:40;7.00;;;4.67;;
39890;SDS011;25564;53.312;9.790;2023-08-30T05:42:11;8.77;;;5.07;;
39890;SDS011;25564;53.312;9.790;2023-08-30T05:44:43;7.73;;;4.97;;
39890;SDS011;25564;53.312;9.790;2023-08-30T05:47:14;7.57;;;4.83;;
39890;SDS011;25564;53.312;9.790;2023-08-30T05:49:47;6.40;;;4.10;;
39890;SDS011;25564;53.312;9.790;2023-08-30T05:52:19;7.30;;;5.27;;
39890;SDS011;25564;53.312;9.790;2023-08-30T05:54:50;9.00;;;5.03;;
39890;SDS011;25564;53.312;9.790;2023-08-30T05:57:22;9.50;;;4.73;;
39890;SDS011;25564;53.312;9.790;2023-08-30T05:59:54;9.97;;;5.20;;
39890;SDS011;25564;53.312;9.790;2023-08-30T06:02:26;8.80;;;4.70;;
39890;SDS011;25564;53.312;9.790;2023-08-30T06:04:58;7.67;;;5.20;;
39890;SDS011;25564;53.312;9.790;2023-08-30T06:07:29;8.50;;;4.47;;
39890;SDS011;25564;53.312;9.790;2023-08-30T06:10:01;7.23;;;4.23;;
39890;SDS011;25564;53.312;9.790;2023-08-30T06:12:32;5.67;;;4.37;;
39890;SDS011;25564;53.312;9.790;2023-08-30T06:15:04;7.53;;;4.80;;
39890;SDS011;25564;53.312;9.790;2023-08-30T06:17:36;7.37;;;4.77;;
39890;SDS011;25564;53.312;9.790;2023-08-30T06:20:08;7.30;;;4.80;;
39890;SDS011;25564;53.312;9.790;2023-08-30T06:22:40;7.33;;;4.87;;
39890;SDS011;25564;53.312;9.790;2023-08-30T06:25:16;7.90;;;4.33;;
39890;SDS011;25564;53.312;9.790;2023-08-30T06:27:57;7.00;;;4.70;;
39890;SDS011;25564;53.312;9.790;2023-08-30T06:30:30;8.20;;;5.03;;
39890;SDS011;25564;53.312;9.790;2023-08-30T06:33:01;6.83;;;5.00;;
39890;SDS011;25564;53.312;9.790;2023-08-30T06:35:35;9.40;;;4.93;;
39890;SDS011;25564;53.312;9.790;2023-08-30T06:38:08;7.93;;;4.80;;
39890;SDS011;25564;53.312;9.790;2023-08-30T06:40:46;7.10;;;5.03;;
39890;SDS011;25564;53.312;9.790;2023-08-30T06:43:17;11.77;;;5.27;;
39890;SDS011;25564;53.312;9.790;2023-08-30T06:45:49;11.67;;;5.67;;
39890;SDS011;25564;53.312;9.790;2023-08-30T06:48:21;7.63;;;5.10;;
39890;SDS011;25564;53.312;9.790;2023-08-30T06:50:52;9.50;;;5.10;;
39890;SDS011;25564;53.312;9.790;2023-08-30T06:53:24;6.70;;;4.67;;
39890;SDS011;25564;53.312;9.790;2023-08-30T06:56:00;5.67;;;4.33;;
39890;SDS011;25564;53.312;9.790;2023-08-30T06:58:32;6.53;;;4.82;;
39890;SDS011;25564;53.312;9.790;2023-08-30T07:01:04;7.27;;;5.23;;
39890;SDS011;25564;53.312;9.790;2023-08-30T07:03:35;8.25;;;4.88;;
39890;SDS011;25564;53.312;9.790;2023-08-30T07:06:07;7.07;;;5.38;;
39890;SDS011;25564;53.312;9.790;2023-08-30T07:08:38;8.98;;;5.45;;
39890;SDS011;25564;53.312;9.790;2023-08-30T07:11:10;8.50;;;5.45;;
39890;SDS011;25564;53.312;9.790;2023-08-30T07:14:02;7.45;;;5.10;;
39890;SDS011;25564;53.312;9.790;2023-08-30T07:16:33;9.95;;;6.18;;
39890;SDS011;25564;53.312;9.790;2023-08-30T07:19:05;8.50;;;5.47;;
39890;SDS011;25564;53.312;9.790;2023-08-30T07:21:37;7.85;;;5.18;;
39890;SDS011;25564;53.312;9.790;2023-08-30T07:24:10;7.18;;;4.90;;
39890;SDS011;25564;53.312;9.790;2023-08-30T07:26:42;11.82;;;6.03;;
39890;SDS011;25564;53.312;9.790;2023-08-30T07:29:14;9.38;;;5.57;;
39890;SDS011;25564;53.312;9.790;2023-08-30T07:31:46;7.32;;;4.82;;
39890;SDS011;25564;53.312;9.790;2023-08-30T07:34:17;8.13;;;5.80;;
39890;SDS011;25564;53.312;9.790;2023-08-30T07:36:48;9.43;;;5.53;;
39890;SDS011;25564;53.312;9.790;2023-08-30T07:39:20;11.18;;;6.30;;
39890;SDS011;25564;53.312;9.790;2023-08-30T07:41:51;7.70;;;5.15;;
39890;SDS011;25564;53.312;9.790;2023-08-30T07:44:23;8.70;;;5.50;;
39890;SDS011;25564;53.312;9.790;2023-08-30T07:46:54;10.35;;;5.95;;
39890;SDS011;25564;53.312;9.790;2023-08-30T07:49:25;9.02;;;5.70;;
39890;SDS011;25564;53.312;9.790;2023-08-30T07:51:57;10.18;;;5.80;;
39890;SDS011;25564;53.312;9.790;2023-08-30T07:54:29;8.88;;;5.35;;
39890;SDS011;25564;53.312;9.790;2023-08-30T07:57:03;10.35;;;5.85;;
39890;SDS011;25564;53.312;9.790;2023-08-30T07:59:35;7.53;;;5.15;;
39890;SDS011;25564;53.312;9.790;2023-08-30T08:02:08;9.15;;;6.18;;
39890;SDS011;25564;53.312;9.790;2023-08-30T08:04:39;11.00;;;5.57;;
39890;SDS011;25564;53.312;9.790;2023-08-30T08:07:11;7.57;;;4.90;;
39890;SDS011;25564;53.312;9.790;2023-08-30T08:09:42;10.43;;;5.70;;
39890;SDS011;25564;53.312;9.790;2023-08-30T08:12:13;8.25;;;5.07;;
39890;SDS011;25564;53.312;9.790;2023-08-30T08:14:45;8.60;;;5.25;;
39890;SDS011;25564;53.312;9.790;2023-08-30T08:17:16;8.20;;;4.90;;
39890;SDS011;25564;53.312;9.790;2023-08-30T08:19:48;8.98;;;4.80;;
39890;SDS011;25564;53.312;9.790;2023-08-30T08:22:19;10.07;;;5.03;;
39890;SDS011;25564;53.312;9.790;2023-08-30T08:24:50;7.90;;;5.22;;
39890;SDS011;25564;53.312;9.790;2023-08-30T08:27:24;8.57;;;4.63;;
39890;SDS011;25564;53.312;9.790;2023-08-30T08:29:56;6.70;;;4.30;;
39890;SDS011;25564;53.312;9.790;2023-08-30T08:32:27;16.67;;;5.05;;
39890;SDS011;25564;53.312;9.790;2023-08-30T08:34:59;7.47;;;4.10;;
39890;SDS011;25564;53.312;9.790;2023-08-30T08:37:31;6.60;;;3.80;;
39890;SDS011;25564;53.312;9.790;2023-08-30T08:40:03;9.63;;;4.60;;
39890;SDS011;25564;53.312;9.790;2023-08-30T08:42:40;6.82;;;3.92;;
39890;SDS011;25564;53.312;9.790;2023-08-30T08:45:13;7.75;;;4.75;;
39890;SDS011;25564;53.312;9.790;2023-08-30T08:47:47;8.57;;;3.95;;
39890;SDS011;25564;53.312;9.790;2023-08-30T08:50:19;8.63;;;4.38;;
39890;SDS011;25564;53.312;9.790;2023-08-30T08:52:51;7.65;;;4.28;;
39890;SDS011;25564;53.312;9.790;2023-08-30T08:55:39;8.88;;;5.18;;
39890;SDS011;25564;53.312;9.790;2023-08-30T08:58:13;9.20;;;4.90;;
39890;SDS011;25564;53.312;9.790;2023-08-30T09:00:46;9.00;;;4.35;;
39890;SDS011;25564;53.312;9.790;2023-08-30T09:03:18;6.80;;;4.38;;
39890;SDS011;25564;53.312;9.790;2023-08-30T09:05:50;7.88;;;4.30;;
39890;SDS011;25564;53.312;9.790;2023-08-30T09:08:22;6.88;;;4.47;;
39890;SDS011;25564;53.312;9.790;2023-08-30T09:10:54;5.32;;;4.20;;
39890;SDS011;25564;53.312;9.790;2023-08-30T09:13:26;8.38;;;3.83;;
39890;SDS011;25564;53.312;9.790;2023-08-30T09:15:57;8.38;;;4.78;;
39890;SDS011;25564;53.312;9.790;2023-08-30T09:18:29;6.80;;;4.55;;
39890;SDS011;25564;53.312;9.790;2023-08-30T09:21:05;6.45;;;4.05;;
39890;SDS011;25564;53.312;9.790;2023-08-30T09:23:37;8.13;;;5.45;;
39890;SDS011;25564;53.312;9.790;2023-08-30T09:26:09;9.98;;;3.78;;
39890;SDS011;25564;53.312;9.790;2023-08-30T09:28:43;7.93;;;4.20;;
39890;SDS011;25564;53.312;9.790;2023-08-30T09:31:18;6.75;;;3.88;;
39890;SDS011;25564;53.312;9.790;2023-08-30T09:33:57;10.07;;;4.88;;
39890;SDS011;25564;53.312;9.790;2023-08-30T09:36:36;7.07;;;4.25;;
39890;SDS011;25564;53.312;9.790;2023-08-30T09:39:09;7.93;;;4.50;;
39890;SDS011;25564;53.312;9.790;2023-08-30T09:41:42;6.60;;;4.40;;
39890;SDS011;25564;53.312;9.790;2023-08-30T09:44:15;7.60;;;4.57;;
39890;SDS011;25564;53.312;9.790;2023-08-30T09:46:51;6.45;;;4.05;;
39890;SDS011;25564;53.312;9.790;2023-08-30T09:49:25;5.72;;;3.78;;
39890;SDS011;25564;53.312;9.790;2023-08-30T09:51:57;5.50;;;3.75;;
39890;SDS011;25564;53.312;9.790;2023-08-30T09:54:30;7.00;;;3.90;;
39890;SDS011;25564;53.312;9.790;2023-08-30T09:57:10;5.13;;;2.92;;
39890;SDS011;25564;53.312;9.790;2023-08-30T09:59:42;6.65;;;3.92;;
39890;SDS011;25564;53.312;9.790;2023-08-30T10:02:13;7.07;;;3.38;;
39890;SDS011;25564;53.312;9.790;2023-08-30T10:04:46;5.85;;;3.55;;
39890;SDS011;25564;53.312;9.790;2023-08-30T10:07:19;5.13;;;3.45;;
39890;SDS011;25564;53.312;9.790;2023-08-30T10:09:52;5.93;;;3.58;;
39890;SDS011;25564;53.312;9.790;2023-08-30T10:12:40;5.53;;;3.00;;
39890;SDS011;25564;53.312;9.790;2023-08-30T10:15:23;6.13;;;3.00;;
39890;SDS011;25564;53.312;9.790;2023-08-30T10:17:57;5.72;;;2.75;;
39890;SDS011;25564;53.312;9.790;2023-08-30T10:20:29;4.82;;;3.33;;
39890;SDS011;25564;53.312;9.790;2023-08-30T10:23:03;6.22;;;2.60;;
39890;SDS011;25564;53.312;9.790;2023-08-30T10:25:34;5.22;;;2.33;;
39890;SDS011;25564;53.312;9.790;2023-08-30T10:28:06;6.28;;;3.17;;
39890;SDS011;25564;53.312;9.790;2023-08-30T10:30:40;4.85;;;2.78;;
39890;SDS011;25564;53.312;9.790;2023-08-30T10:33:12;6.55;;;3.20;;
39890;SDS011;25564;53.312;9.790;2023-08-30T10:35:48;5.70;;;3.22;;
39890;SDS011;25564;53.312;9.790;2023-08-30T10:38:27;6.95;;;3.03;;
39890;SDS011;25564;53.312;9.790;2023-08-30T10:41:06;5.22;;;2.90;;
39890;SDS011;25564;53.312;9.790;2023-08-30T10:43:38;6.30;;;3.40;;
39890;SDS011;25564;53.312;9.790;2023-08-30T10:46:09;7.18;;;3.22;;
39890;SDS011;25564;53.312;9.790;2023-08-30T10:48:44;7.80;;;3.15;;
39890;SDS011;25564;53.312;9.790;2023-08-30T10:51:23;6.32;;;3.58;;
39890;SDS011;25564;53.312;9.790;2023-08-30T10:54:12;4.40;;;3.03;;
39890;SDS011;25564;53.312;9.790;2023-08-30T10:56:56;7.05;;;3.88;;
39890;SDS011;25564;53.312;9.790;2023-08-30T10:59:30;6.07;;;3.47;;
39890;SDS011;25564;53.312;9.790;2023-08-30T11:02:02;8.20;;;3.25;;
39890;SDS011;25564;53.312;9.790;2023-08-30T11:04:38;7.18;;;3.53;;
39890;SDS011;25564;53.312;9.790;2023-08-30T11:07:11;5.05;;;3.15;;
39890;SDS011;25564;53.312;9.790;2023-08-30T11:09:43;7.18;;;3.60;;
39890;SDS011;25564;53.312;9.790;2023-08-30T11:12:15;6.18;;;3.55;;
39890;SDS011;25564;53.312;9.790;2023-08-30T11:14:49;7.78;;;4.40;;
39890;SDS011;25564;53.312;9.790;2023-08-30T11:17:21;7.53;;;3.17;;
39890;SDS011;25564;53.312;9.790;2023-08-30T11:20:04;5.03;;;3.42;;
39890;SDS011;25564;53.312;9.790;2023-08-30T11:22:38;7.00;;;3.30;;
39890;SDS011;25564;53.312;9.790;2023-08-30T11:25:11;5.57;;;3.20;;
39890;SDS011;25564;53.312;9.790;2023-08-30T11:27:44;5.55;;;3.67;;
39890;SDS011;25564;53.312;9.790;2023-08-30T11:30:15;5.22;;;3.08;;
39890;SDS011;25564;53.312;9.790;2023-08-30T11:32:47;5.97;;;2.78;;
39890;SDS011;25564;53.312;9.790;2023-08-30T11:35:18;6.72;;;2.95;;
39890;SDS011;25564;53.312;9.790;2023-08-30T11:37:50;5.97;;;2.58;;
39890;SDS011;25564;53.312;9.790;2023-08-30T11:40:21;4.70;;;3.35;;
39890;SDS011;25564;53.312;9.790;2023-08-30T11:42:53;5.53;;;2.97;;
39890;SDS011;25564;53.312;9.790;2023-08-30T11:45:25;4.50;;;2.60;;
39890;SDS011;25564;53.312;9.790;2023-08-30T11:47:57;5.00;;;2.78;;
39890;SDS011;25564;53.312;9.790;2023-08-30T11:50:30;4.20;;;2.35;;
39890;SDS011;25564;53.312;9.790;2023-08-30T11:53:17;3.30;;;2.63;;
39890;SDS011;25564;53.312;9.790;2023-08-30T11:55:49;6.60;;;3.45;;
39890;SDS011;25564;53.312;9.790;2023-08-30T11:58:20;7.55;;;3.53;;
39890;SDS011;25564;53.312;9.790;2023-08-30T12:00:52;3.83;;;2.67;;
39890;SDS011;25564;53.312;9.790;2023-08-30T12:03:28;4.75;;;2.88;;
39890;SDS011;25564;53.312;9.790;2023-08-30T12:06:00;7.40;;;3.20;;
39890;SDS011;25564;53.312;9.790;2023-08-30T12:08:32;3.38;;;2.05;;
39890;SDS011;25564;53.312;9.790;2023-08-30T12:11:04;6.32;;;2.78;;
39890;SDS011;25564;53.312;9.790;2023-08-30T12:13:36;3.88;;;2.50;;
39890;SDS011;25564;53.312;9.790;2023-08-30T12:16:07;5.43;;;2.80;;
39890;SDS011;25564;53.312;9.790;2023-08-30T12:18:39;5.15;;;2.65;;
39890;SDS011;25564;53.312;9.790;2023-08-30T12:21:10;4.85;;;2.75;;
39890;SDS011;25564;53.312;9.790;2023-08-30T12:23:44;6.20;;;2.92;;
39890;SDS011;25564;53.312;9.790;2023-08-30T12:26:16;6.95;;;3.20;;
39890;SDS011;25564;53.312;9.790;2023-08-30T12:28:47;6.05;;;3.13;;
39890;SDS011;25564;53.312;9.790;2023-08-30T12:31:19;4.45;;;2.92;;
39890;SDS011;25564;53.312;9.790;2023-08-30T12:33:51;5.93;;;3.58;;
39890;SDS011;25564;53.312;9.790;2023-08-30T12:36:22;4.95;;;2.70;;
39890;SDS011;25564;53.312;9.790;2023-08-30T12:38:54;7.28;;;2.65;;
39890;SDS011;25564;53.312;9.790;2023-08-30T12:41:25;6.03;;;2.92;;
39890;SDS011;25564;53.312;9.790;2023-08-30T12:43:57;5.68;;;3.13;;
39890;SDS011;25564;53.312;9.790;2023-08-30T12:46:29;5.18;;;2.40;;
39890;SDS011;25564;53.312;9.790;2023-08-30T12:49:00;5.28;;;3.03;;
39890;SDS011;25564;53.312;9.790;2023-08-30T12:51:32;4.50;;;2.65;;
39890;SDS011;25564;53.312;9.790;2023-08-30T12:54:04;6.45;;;2.47;;
39890;SDS011;25564;53.312;9.790;2023-08-30T12:56:36;5.45;;;2.65;;
39890;SDS011;25564;53.312;9.790;2023-08-30T12:59:07;4.18;;;2.38;;
39890;SDS011;25564;53.312;9.790;2023-08-30T13:01:39;4.30;;;2.47;;
39890;SDS011;25564;53.312;9.790;2023-08-30T13:04:11;4.18;;;2.67;;
39890;SDS011;25564;53.312;9.790;2023-08-30T13:06:43;3.92;;;2.25;;
39890;SDS011;25564;53.312;9.790;2023-08-30T13:09:14;5.13;;;2.65;;
39890;SDS011;25564;53.312;9.790;2023-08-30T13:11:45;3.47;;;2.10;;
39890;SDS011;25564;53.312;9.790;2023-08-30T13:14:17;5.82;;;2.20;;
39890;SDS011;25564;53.312;9.790;2023-08-30T13:16:48;4.55;;;2.13;;
39890;SDS011;25564;53.312;9.790;2023-08-30T13:19:21;5.40;;;2.25;;
39890;SDS011;25564;53.312;9.790;2023-08-30T13:21:52;3.35;;;2.35;;
39890;SDS011;25564;53.312;9.790;2023-08-30T13:24:24;4.13;;;2.45;;
39890;SDS011;25564;53.312;9.790;2023-08-30T13:26:55;4.07;;;2.13;;
39890;SDS011;25564;53.312;9.790;2023-08-30T13:29:26;4.68;;;2.28;;
39890;SDS011;25564;53.312;9.790;2023-08-30T13:31:58;5.00;;;2.50;;
39890;SDS011;25564;53.312;9.790;2023-08-30T13:34:29;3.50;;;1.90;;
39890;SDS011;25564;53.312;9.790;2023-08-30T13:37:01;4.63;;;1.88;;
39890;SDS011;25564;53.312;9.790;2023-08-30T13:39:32;3.88;;;2.25;;
39890;SDS011;25564;53.312;9.790;2023-08-30T13:42:04;5.60;;;2.13;;
39890;SDS011;25564;53.312;9.790;2023-08-30T13:44:35;6.55;;;2.50;;
39890;SDS011;25564;53.312;9.790;2023-08-30T13:47:08;5.40;;;1.90;;
39890;SDS011;25564;53.312;9.790;2023-08-30T13:49:40;4.30;;;2.00;;
39890;SDS011;25564;53.312;9.790;2023-08-30T13:52:11;4.35;;;2.30;;
39890;SDS011;25564;53.312;9.790;2023-08-30T13:54:43;2.70;;;1.70;;
39890;SDS011;25564;53.312;9.790;2023-08-30T13:57:14;6.53;;;2.28;;
39890;SDS011;25564;53.312;9.790;2023-08-30T13:59:47;3.63;;;1.67;;
39890;SDS011;25564;53.312;9.790;2023-08-30T14:02:18;4.68;;;1.92;;
39890;SDS011;25564;53.312;9.790;2023-08-30T14:04:51;3.67;;;1.85;;
39890;SDS011;25564;53.312;9.790;2023-08-30T14:07:23;3.85;;;1.63;;
39890;SDS011;25564;53.312;9.790;2023-08-30T14:09:54;4.63;;;2.33;;
39890;SDS011;25564;53.312;9.790;2023-08-30T14:12:26;3.47;;;1.60;;
39890;SDS011;25564;53.312;9.790;2023-08-30T14:14:57;2.97;;;1.85;;
39890;SDS011;25564;53.312;9.790;2023-08-30T14:17:28;4.40;;;2.55;;
39890;SDS011;25564;53.312;9.790;2023-08-30T14:20:00;3.40;;;2.03;;
39890;SDS011;25564;53.312;9.790;2023-08-30T14:22:32;3.03;;;1.90;;
39890;SDS011;25564;53.312;9.790;2023-08-30T14:25:03;3.35;;;2.00;;
39890;SDS011;25564;53.312;9.790;2023-08-30T14:27:42;8.32;;;2.28;;
39890;SDS011;25564;53.312;9.790;2023-08-30T14:30:15;8.95;;;2.53;;
39890;SDS011;25564;53.312;9.790;2023-08-30T14:32:47;3.25;;;1.80;;
39890;SDS011;25564;53.312;9.790;2023-08-30T14:35:18;4.07;;;1.70;;
39890;SDS011;25564;53.312;9.790;2023-08-30T14:37:52;5.53;;;2.20;;
39890;SDS011;25564;53.312;9.790;2023-08-30T14:40:23;3.85;;;2.00;;
39890;SDS011;25564;53.312;9.790;2023-08-30T14:42:54;3.50;;;2.17;;
39890;SDS011;25564;53.312;9.790;2023-08-30T14:45:26;7.22;;;2.45;;
39890;SDS011;25564;53.312;9.790;2023-08-30T14:47:58;4.43;;;2.10;;
39890;SDS011;25564;53.312;9.790;2023-08-30T14:50:29;2.67;;;1.80;;
39890;SDS011;25564;53.312;9.790;2023-08-30T14:53:01;6.18;;;2.33;;
39890;SDS011;25564;53.312;9.790;2023-08-30T14:55:32;4.18;;;1.95;;
39890;SDS011;25564;53.312;9.790;2023-08-30T14:58:04;3.80;;;2.20;;
39890;SDS011;25564;53.312;9.790;2023-08-30T15:00:35;5.68;;;1.92;;
39890;SDS011;25564;53.312;9.790;2023-08-30T15:03:07;13.32;;;2.25;;
39890;SDS011;25564;53.312;9.790;2023-08-30T15:05:38;7.18;;;2.50;;
39890;SDS011;25564;53.312;9.790;2023-08-30T15:08:10;3.65;;;1.80;;
39890;SDS011;25564;53.312;9.790;2023-08-30T15:10:42;4.95;;;2.00;;
39890;SDS011;25564;53.312;9.790;2023-08-30T15:13:14;2.75;;;1.85;;
39890;SDS011;25564;53.312;9.790;2023-08-30T15:15:45;6.50;;;2.20;;
39890;SDS011;25564;53.312;9.790;2023-08-30T15:18:17;3.35;;;1.90;;
39890;SDS011;25564;53.312;9.790;2023-08-30T15:20:52;4.32;;;1.80;;
39890;SDS011;25564;53.312;9.790;2023-08-30T15:23:25;3.03;;;1.60;;
39890;SDS011;25564;53.312;9.790;2023-08-30T15:25:56;3.40;;;1.90;;